Time;durP1;ratioP1;P1;durP2;ratioP2;P2;SDS_P1;SDS_P2;PMS_P1;PMS_P2;Temp;Humidity;BMP_temperature;BMP_pressure;BME280_temperature;BME280_humidity;BME280_pressure;Samples;Min_cycle;Max_cycle;Signal;HPM_P1;HPM_P2
2022/10/23 00:01:19;;;;;;;0.20;0.20;;;11.70;99.90;;;;;;4858737;29;20137;-75
2022/10/23 00:03:45;;;;;;;0.20;0.20;;;11.60;99.90;;;;;;4846168;29;20041;-74
2022/10/23 00:06:12;;;;;;;0.20;0.20;;;11.60;99.90;;;;;;4861588;29;21407;-75
2022/10/23 00:08:38;;;;;;;0.10;0.10;;;11.60;99.90;;;;;;4882098;29;20134;-76
2022/10/23 00:11:10;;;;;;;0.10;0.10;;;11.60;99.90;;;;;;4864031;29;20571;-75
2022/10/23 00:13:36;;;;;;;0.10;0.10;;;11.60;99.90;;;;;;4874011;29;20068;-75
2022/10/23 00:16:01;;;;;;;0.10;0.10;;;11.60;99.90;;;;;;4879564;29;20401;-75
2022/10/23 00:18:27;;;;;;;0.10;0.10;;;11.60;99.90;;;;;;4875542;29;20052;-75
2022/10/23 00:20:52;;;;;;;0.10;0.10;;;11.60;99.90;;;;;;4873549;29;20033;-75
2022/10/23 00:23:18;;;;;;;0.10;0.10;;;11.60;99.90;;;;;;4873573;29;20127;-75
2022/10/23 00:25:44;;;;;;;0.10;0.10;;;11.60;99.90;;;;;;4860957;29;20061;-75
2022/10/23 00:28:09;;;;;;;0.20;0.20;;;11.60;99.90;;;;;;4857911;29;20053;-75
2022/10/23 00:30:35;;;;;;;0.10;0.10;;;11.60;99.90;;;;;;4876393;29;20143;-76
2022/10/23 00:33:01;;;;;;;0.10;0.10;;;11.60;99.90;;;;;;4858702;29;20112;-75
2022/10/23 00:35:26;;;;;;;0.20;0.20;;;11.60;99.90;;;;;;4876940;29;20041;-74
2022/10/23 00:37:52;;;;;;;0.20;0.20;;;11.60;99.90;;;;;;4874776;29;20033;-76
2022/10/23 00:40:18;;;;;;;0.17;0.17;;;11.50;99.90;;;;;;4876612;29;20570;-75
2022/10/23 00:42:43;;;;;;;0.10;0.10;;;11.60;99.90;;;;;;4858313;29;20143;-76
2022/10/23 00:45:25;;;;;;;0.10;0.10;;;11.60;99.90;;;;;;4859488;29;20127;-75
2022/10/23 00:47:51;;;;;;;0.20;0.20;;;11.60;99.90;;;;;;4875934;29;20128;-75
2022/10/23 00:50:18;;;;;;;0.20;0.20;;;11.50;99.90;;;;;;4869836;29;20181;-75
2022/10/23 00:52:50;;;;;;;0.15;0.15;;;11.50;99.90;;;;;;4863004;29;20053;-76
2022/10/23 00:55:18;;;;;;;0.10;0.10;;;11.50;99.90;;;;;;4870371;29;20049;-75
2022/10/23 00:57:47;;;;;;;0.10;0.10;;;11.50;99.90;;;;;;4858516;29;20093;-76
2022/10/23 01:00:25;;;;;;;0.10;0.10;;;11.50;99.90;;;;;;4872561;29;20045;-75
2022/10/23 01:02:52;;;;;;;0.20;0.20;;;11.50;99.90;;;;;;4871913;29;20052;-76
2022/10/23 01:05:23;;;;;;;0.20;0.20;;;11.50;99.90;;;;;;4860520;29;20481;-76
2022/10/23 01:08:06;;;;;;;0.10;0.10;;;11.40;99.90;;;;;;4859224;29;20413;-75
2022/10/23 01:10:48;;;;;;;0.20;0.20;;;11.50;99.90;;;;;;4857125;29;20049;-75
2022/10/23 01:13:29;;;;;;;0.20;0.20;;;11.40;99.90;;;;;;4873687;29;20041;-75
2022/10/23 01:16:06;;;;;;;0.20;0.20;;;11.40;99.90;;;;;;4876107;29;20486;-75
2022/10/23 01:18:38;;;;;;;0.20;0.20;;;11.30;99.90;;;;;;4876043;29;20382;-75
2022/10/23 01:21:14;;;;;;;0.20;0.20;;;11.30;99.90;;;;;;4873867;29;20052;-75
2022/10/23 01:24:04;;;;;;;0.10;0.10;;;11.30;99.90;;;;;;4852044;29;20115;-75
2022/10/23 01:26:36;;;;;;;0.10;0.10;;;11.20;99.90;;;;;;4871299;29;20051;-75
2022/10/23 01:29:07;;;;;;;0.20;0.20;;;11.20;99.90;;;;;;4874254;29;20089;-75
2022/10/23 01:31:46;;;;;;;0.20;0.20;;;11.20;99.90;;;;;;4858254;29;20055;-77
2022/10/23 01:34:33;;;;;;;0.10;0.10;;;11.20;99.90;;;;;;4862898;29;20053;-75
2022/10/23 01:37:01;;;;;;;0.17;0.17;;;11.20;99.90;;;;;;4863880;29;20056;-75
2022/10/23 01:39:43;;;;;;;0.10;0.10;;;11.20;99.90;;;;;;4874246;29;20041;-74
2022/10/23 01:42:14;;;;;;;0.10;0.10;;;11.20;99.90;;;;;;4856493;29;20041;-76
2022/10/23 01:44:51;;;;;;;0.10;0.10;;;11.20;99.90;;;;;;4875073;29;20040;-75
2022/10/23 01:47:20;;;;;;;0.20;0.20;;;11.20;99.90;;;;;;4858950;29;20309;-76
2022/10/23 01:49:49;;;;;;;0.10;0.10;;;11.20;99.90;;;;;;4869801;29;20037;-77
2022/10/23 01:52:16;;;;;;;0.10;0.10;;;11.20;99.90;;;;;;4873168;29;20047;-76
2022/10/23 01:54:45;;;;;;;0.10;0.10;;;11.20;99.90;;;;;;4862301;29;20409;-76
2022/10/23 01:57:15;;;;;;;0.10;0.10;;;11.20;99.90;;;;;;4861820;29;20528;-75
2022/10/23 01:59:48;;;;;;;0.10;0.10;;;11.20;99.90;;;;;;4883009;29;20059;-76
2022/10/23 02:02:16;;;;;;;0.10;0.10;;;11.40;99.90;;;;;;4869967;29;20045;-75
2022/10/23 02:04:54;;;;;;;0.10;0.10;;;11.20;99.90;;;;;;4874161;29;20056;-76
2022/10/23 02:07:19;;;;;;;0.10;0.10;;;11.20;99.90;;;;;;4869958;29;20049;-77
2022/10/23 02:09:45;;;;;;;0.10;0.10;;;11.20;99.90;;;;;;4855729;29;20057;-76
2022/10/23 02:12:40;;;;;;;0.10;0.10;;;11.20;99.90;;;;;;4856118;29;20414;-75
2022/10/23 02:15:13;;;;;;;0.10;0.10;;;11.20;99.90;;;;;;4845203;29;20067;-76
2022/10/23 02:18:11;;;;;;;0.10;0.10;;;11.20;99.90;;;;;;4872787;29;20041;-76
2022/10/23 02:20:42;;;;;;;0.10;0.10;;;11.10;99.90;;;;;;4872675;29;20045;-76
2022/10/23 02:23:21;;;;;;;0.20;0.20;;;11.10;99.90;;;;;;4858280;29;20136;-76
2022/10/23 02:25:56;;;;;;;0.10;0.10;;;11.20;99.90;;;;;;4869906;29;20049;-76
2022/10/23 02:28:31;;;;;;;0.10;0.10;;;11.10;99.90;;;;;;4869984;29;20090;-76
2022/10/23 02:30:58;;;;;;;0.15;0.15;;;11.30;99.90;;;;;;4880337;29;20105;-76
2022/10/23 02:33:26;;;;;;;0.10;0.10;;;11.10;99.90;;;;;;4873333;29;20140;-76
2022/10/23 02:35:52;;;;;;;0.20;0.20;;;11.10;99.90;;;;;;4870826;29;20053;-75
2022/10/23 02:38:30;;;;;;;0.10;0.10;;;11.10;99.90;;;;;;4869237;29;20404;-76
2022/10/23 02:41:05;;;;;;;0.20;0.20;;;11.10;99.90;;;;;;4870165;29;20059;-76
2022/10/23 02:43:37;;;;;;;0.10;0.10;;;11.10;99.90;;;;;;4870365;29;20057;-75
2022/10/23 02:46:35;;;;;;;0.10;0.10;;;11.10;99.90;;;;;;4857080;29;20052;-75
2022/10/23 02:49:32;;;;;;;0.10;0.10;;;11.10;99.90;;;;;;4868472;29;20049;-76
2022/10/23 02:52:24;;;;;;;0.10;0.10;;;11.10;99.90;;;;;;4872230;29;20491;-76
2022/10/23 02:55:05;;;;;;;0.20;0.20;;;11.10;99.90;;;;;;4871807;29;20041;-75
2022/10/23 02:57:47;;;;;;;0.20;0.20;;;11.10;99.90;;;;;;4869157;29;20052;-75
2022/10/23 03:00:15;;;;;;;0.10;0.10;;;11.10;99.90;;;;;;4871879;29;20052;-76
2022/10/23 03:02:45;;;;;;;0.20;0.20;;;11.00;99.90;;;;;;4858315;29;20505;-76
2022/10/23 03:05:15;;;;;;;0.20;0.20;;;11.10;99.90;;;;;;4880415;29;20072;-76
2022/10/23 03:07:41;;;;;;;0.20;0.20;;;11.00;99.90;;;;;;4858541;29;20113;-76
2022/10/23 03:10:08;;;;;;;0.13;0.13;;;10.90;99.90;;;;;;4866289;29;20053;-76
2022/10/23 03:12:33;;;;;;;0.20;0.20;;;11.00;99.90;;;;;;4854372;29;20120;-75
2022/10/23 03:14:59;;;;;;;0.20;0.20;;;11.00;99.90;;;;;;4878398;29;20132;-76
2022/10/23 03:17:25;;;;;;;0.15;0.15;;;11.00;99.90;;;;;;4874368;29;20053;-75
2022/10/23 03:19:50;;;;;;;0.10;0.10;;;11.00;99.90;;;;;;4861517;29;20083;-76
2022/10/23 03:22:16;;;;;;;0.13;0.13;;;11.00;99.90;;;;;;4876498;29;20055;-75
2022/10/23 03:24:42;;;;;;;0.10;0.10;;;11.00;99.90;;;;;;4873274;29;20073;-76
2022/10/23 03:27:10;;;;;;;0.20;0.20;;;11.00;99.90;;;;;;4875572;29;20045;-75
2022/10/23 03:29:36;;;;;;;0.20;0.20;;;11.00;99.90;;;;;;4876827;29;20041;-76
2022/10/23 03:32:02;;;;;;;0.15;0.15;;;11.00;99.90;;;;;;4858718;29;20051;-76
2022/10/23 03:34:28;;;;;;;0.20;0.20;;;11.00;99.90;;;;;;4864325;29;20101;-76
2022/10/23 03:36:54;;;;;;;0.10;0.10;;;11.00;99.90;;;;;;4874798;29;20049;-75
2022/10/23 03:39:19;;;;;;;0.20;0.20;;;11.10;99.90;;;;;;4876415;29;20037;-75
2022/10/23 03:41:45;;;;;;;0.20;0.20;;;11.00;99.90;;;;;;4860111;29;20692;-76
2022/10/23 03:44:10;;;;;;;0.10;0.10;;;11.00;99.90;;;;;;4883603;29;20112;-76
2022/10/23 03:46:36;;;;;;;0.10;0.10;;;11.00;99.90;;;;;;4877588;29;20045;-75
2022/10/23 03:49:02;;;;;;;0.20;0.20;;;11.00;99.90;;;;;;4877217;29;20104;-76
2022/10/23 03:51:28;;;;;;;0.20;0.20;;;11.10;99.90;;;;;;4874107;29;20052;-75
2022/10/23 03:53:54;;;;;;;0.20;0.20;;;11.10;99.90;;;;;;4863674;29;20407;-75
2022/10/23 03:56:20;;;;;;;0.20;0.20;;;11.10;99.90;;;;;;4865875;29;20048;-75
2022/10/23 03:58:45;;;;;;;0.20;0.20;;;11.10;99.90;;;;;;4863362;29;20162;-75
2022/10/23 04:01:11;;;;;;;0.20;0.20;;;11.10;99.90;;;;;;4860304;29;20045;-75
2022/10/23 04:03:36;;;;;;;0.10;0.10;;;11.20;99.90;;;;;;4876101;29;20136;-76
2022/10/23 04:06:02;;;;;;;0.10;0.10;;;11.20;99.90;;;;;;4857920;29;20087;-76
2022/10/23 04:08:28;;;;;;;0.20;0.20;;;11.10;99.90;;;;;;4862388;29;20485;-76
2022/10/23 04:10:54;;;;;;;0.10;0.10;;;11.10;99.90;;;;;;4855749;29;20053;-75
2022/10/23 04:13:20;;;;;;;0.13;0.13;;;11.10;99.90;;;;;;4859316;29;20041;-75
2022/10/23 04:15:52;;;;;;;0.15;0.15;;;11.10;99.90;;;;;;4845915;29;20045;-76
2022/10/23 04:18:18;;;;;;;0.10;0.10;;;11.20;99.90;;;;;;4856452;29;20056;-76
2022/10/23 04:20:46;;;;;;;0.20;0.20;;;11.20;99.90;;;;;;4858967;29;20037;-76
2022/10/23 04:23:12;;;;;;;0.20;0.20;;;11.20;99.90;;;;;;4857088;29;20053;-75
2022/10/23 04:25:38;;;;;;;0.20;0.20;;;11.10;99.90;;;;;;4839226;29;20609;-75
2022/10/23 04:28:03;;;;;;;0.10;0.10;;;11.10;99.90;;;;;;4859036;29;20049;-75
2022/10/23 04:30:29;;;;;;;0.13;0.13;;;11.20;99.90;;;;;;4845413;29;20431;-76
2022/10/23 04:32:54;;;;;;;0.20;0.20;;;11.10;99.90;;;;;;4858206;29;20042;-75
2022/10/23 04:35:20;;;;;;;0.20;0.20;;;11.20;99.90;;;;;;4858069;29;20144;-75
2022/10/23 04:37:46;;;;;;;0.20;0.20;;;11.30;99.90;;;;;;4857611;29;20121;-75
2022/10/23 04:40:11;;;;;;;0.10;0.10;;;11.20;99.90;;;;;;4842937;29;20049;-75
2022/10/23 04:42:37;;;;;;;0.20;0.20;;;11.10;99.90;;;;;;4857489;29;20046;-75
2022/10/23 04:45:04;;;;;;;0.20;0.20;;;11.20;99.90;;;;;;4859566;29;20169;-75
2022/10/23 04:47:29;;;;;;;0.20;0.20;;;11.20;99.90;;;;;;4858093;29;20123;-76
2022/10/23 04:49:55;;;;;;;0.10;0.10;;;11.20;99.90;;;;;;4844692;29;20045;-76
2022/10/23 04:52:21;;;;;;;0.20;0.20;;;11.20;99.90;;;;;;4849068;29;20052;-76
2022/10/23 04:54:47;;;;;;;0.10;0.10;;;11.20;99.90;;;;;;4845579;29;20057;-77
2022/10/23 04:57:13;;;;;;;0.10;0.10;;;11.20;99.90;;;;;;4862325;29;20045;-77
2022/10/23 04:59:38;;;;;;;0.10;0.10;;;11.20;99.90;;;;;;4869272;29;20056;-77
2022/10/23 05:02:04;;;;;;;0.10;0.10;;;11.20;99.90;;;;;;4862236;29;20045;-77
2022/10/23 05:04:29;;;;;;;0.20;0.20;;;11.20;99.90;;;;;;4837378;29;20561;-77
2022/10/23 05:06:55;;;;;;;0.10;0.10;;;11.20;99.90;;;;;;4850625;29;20057;-77
2022/10/23 05:09:21;;;;;;;0.15;0.15;;;11.20;99.90;;;;;;4877235;29;20056;-77
2022/10/23 05:11:47;;;;;;;0.10;0.10;;;11.20;99.90;;;;;;4874941;29;20120;-77
2022/10/23 05:14:12;;;;;;;0.20;0.20;;;11.20;99.90;;;;;;4877533;29;20075;-77
2022/10/23 05:16:42;;;;;;;0.20;0.20;;;11.20;99.90;;;;;;4873994;29;20067;-77
2022/10/23 05:19:13;;;;;;;0.10;0.10;;;11.20;99.90;;;;;;4860115;29;20489;-77
2022/10/23 05:21:39;;;;;;;0.20;0.20;;;11.20;99.90;;;;;;4870490;29;20521;-76
2022/10/23 05:24:05;;;;;;;0.10;0.10;;;11.20;99.90;;;;;;4863475;29;20037;-77
2022/10/23 05:26:31;;;;;;;0.20;0.20;;;11.20;99.90;;;;;;4868825;29;20556;-77
2022/10/23 05:28:57;;;;;;;0.20;0.20;;;11.20;99.90;;;;;;4875086;29;20051;-77
2022/10/23 05:31:24;;;;;;;0.15;0.15;;;11.20;99.90;;;;;;4858540;29;20393;-77
2022/10/23 05:33:51;;;;;;;0.10;0.10;;;11.20;99.90;;;;;;4874967;29;20048;-77
2022/10/23 05:36:17;;;;;;;0.17;0.17;;;11.20;99.90;;;;;;4859645;29;20093;-77
2022/10/23 05:38:44;;;;;;;0.20;0.20;;;11.20;99.90;;;;;;4874032;29;20044;-77
2022/10/23 05:41:10;;;;;;;0.10;0.10;;;11.20;99.90;;;;;;4876392;29;20059;-77
2022/10/23 05:43:35;;;;;;;0.15;0.15;;;11.20;99.90;;;;;;4855968;29;20057;-77
2022/10/23 05:46:05;;;;;;;0.20;0.20;;;11.30;99.90;;;;;;4875829;29;20040;-77
2022/10/23 05:48:31;;;;;;;0.30;0.30;;;11.20;99.90;;;;;;4875944;29;20467;-77
2022/10/23 05:51:08;;;;;;;0.15;0.15;;;11.20;99.90;;;;;;4857854;29;20502;-76
2022/10/23 05:53:34;;;;;;;0.17;0.17;;;11.20;99.90;;;;;;4857560;29;20045;-77
2022/10/23 05:56:06;;;;;;;0.20;0.20;;;11.30;99.90;;;;;;4872319;29;20044;-77
2022/10/23 05:58:33;;;;;;;0.20;0.20;;;11.20;99.90;;;;;;4877685;29;20048;-77
2022/10/23 06:01:02;;;;;;;0.20;0.20;;;11.30;99.90;;;;;;4859704;29;20048;-77
2022/10/23 06:03:28;;;;;;;0.10;0.10;;;11.20;99.90;;;;;;4875730;29;20128;-77
2022/10/23 06:05:54;;;;;;;0.20;0.20;;;11.20;99.90;;;;;;4875764;29;20136;-77
2022/10/23 06:08:19;;;;;;;0.20;0.20;;;11.30;99.90;;;;;;4855977;29;20411;-77
2022/10/23 06:10:46;;;;;;;0.10;0.10;;;11.30;99.90;;;;;;4840880;29;20045;-76
2022/10/23 06:13:11;;;;;;;0.20;0.20;;;11.30;99.90;;;;;;4837640;29;20084;-77
2022/10/23 06:15:37;;;;;;;0.10;0.10;;;11.30;99.90;;;;;;4837880;29;20129;-77
2022/10/23 06:18:04;;;;;;;0.20;0.20;;;11.30;99.90;;;;;;4841327;29;20410;-77
2022/10/23 06:20:29;;;;;;;0.10;0.10;;;11.30;99.90;;;;;;4830672;29;20045;-77
2022/10/23 06:22:55;;;;;;;0.20;0.20;;;11.40;99.90;;;;;;4854715;29;20047;-77
2022/10/23 06:25:21;;;;;;;0.20;0.20;;;11.30;99.90;;;;;;4856314;29;20402;-77
2022/10/23 06:27:46;;;;;;;0.15;0.15;;;11.30;99.90;;;;;;4831986;29;20494;-76
2022/10/23 06:30:12;;;;;;;0.13;0.13;;;11.30;99.90;;;;;;4837448;29;20474;-77
2022/10/23 06:32:38;;;;;;;0.20;0.20;;;11.30;99.90;;;;;;4843068;29;20529;-77
2022/10/23 06:35:04;;;;;;;0.20;0.20;;;11.30;99.90;;;;;;4840046;29;20566;-77
2022/10/23 06:37:32;;;;;;;0.20;0.20;;;11.30;99.90;;;;;;4839286;29;20064;-77
2022/10/23 06:39:58;;;;;;;0.10;0.10;;;11.40;99.90;;;;;;4860694;29;20046;-77
2022/10/23 06:42:23;;;;;;;0.10;0.10;;;11.40;99.90;;;;;;4839201;29;20046;-76
2022/10/23 06:44:49;;;;;;;0.20;0.20;;;11.40;99.90;;;;;;4857670;29;20050;-77
2022/10/23 06:47:15;;;;;;;0.10;0.10;;;11.60;99.90;;;;;;4856146;29;20052;-80
2022/10/23 06:49:41;;;;;;;0.20;0.20;;;11.40;99.90;;;;;;4849277;29;20054;-78
2022/10/23 06:52:06;;;;;;;0.20;0.20;;;11.50;99.90;;;;;;4855853;29;20439;-75
2022/10/23 06:54:32;;;;;;;0.13;0.13;;;11.40;99.90;;;;;;4853632;29;20418;-75
2022/10/23 06:56:57;;;;;;;0.20;0.20;;;11.40;99.90;;;;;;4836163;29;20520;-75
2022/10/23 06:59:23;;;;;;;0.20;0.20;;;11.40;99.90;;;;;;4838730;29;20565;-75
2022/10/23 07:01:49;;;;;;;0.10;0.10;;;11.40;99.90;;;;;;4857670;29;20524;-75
2022/10/23 07:04:22;;;;;;;0.20;0.20;;;11.40;99.90;;;;;;4836851;29;20037;-74
2022/10/23 07:06:47;;;;;;;0.10;0.10;;;11.40;99.90;;;;;;4856459;29;20116;-75
2022/10/23 07:09:13;;;;;;;0.10;0.10;;;11.40;99.90;;;;;;4859772;29;20494;-75
2022/10/23 07:11:39;;;;;;;0.10;0.10;;;11.40;99.90;;;;;;4853643;29;20030;-76
2022/10/23 07:14:05;;;;;;;0.20;0.20;;;11.40;99.90;;;;;;4857136;29;20062;-75
2022/10/23 07:16:31;;;;;;;0.10;0.10;;;11.50;99.90;;;;;;4857564;29;20041;-75
2022/10/23 07:18:59;;;;;;;0.20;0.20;;;11.50;99.90;;;;;;4858177;29;20054;-74
2022/10/23 07:21:27;;;;;;;0.20;0.20;;;11.50;99.90;;;;;;4837548;29;20049;-75
2022/10/23 07:23:53;;;;;;;0.20;0.20;;;11.50;99.90;;;;;;4834096;29;20050;-74
2022/10/23 07:26:18;;;;;;;0.20;0.20;;;11.50;99.90;;;;;;4839132;29;20045;-75
2022/10/23 07:28:46;;;;;;;0.13;0.13;;;11.60;99.90;;;;;;4846354;29;20048;-73
2022/10/23 07:31:12;;;;;;;0.20;0.20;;;11.60;99.90;;;;;;4833114;29;20046;-75
2022/10/23 07:33:38;;;;;;;0.20;0.20;;;11.60;99.90;;;;;;4838849;29;20057;-75
2022/10/23 07:36:07;;;;;;;0.15;0.15;;;11.60;99.90;;;;;;4863894;29;20581;-75
2022/10/23 07:38:34;;;;;;;0.20;0.20;;;11.70;99.90;;;;;;4860850;29;20459;-75
2022/10/23 07:41:00;;;;;;;0.10;0.10;;;11.70;99.90;;;;;;4857153;29;20093;-72
2022/10/23 07:43:26;;;;;;;0.17;0.17;;;11.80;99.90;;;;;;4836593;29;20065;-75
2022/10/23 07:45:52;;;;;;;0.10;0.10;;;11.80;99.90;;;;;;4855586;29;20045;-75
2022/10/23 07:48:19;;;;;;;0.10;0.10;;;11.80;99.90;;;;;;4854558;29;20046;-74
2022/10/23 07:50:45;;;;;;;0.20;0.20;;;11.80;99.90;;;;;;4856219;29;20102;-75
2022/10/23 07:53:17;;;;;;;0.20;0.20;;;11.80;99.90;;;;;;4855996;29;20469;-75
2022/10/23 07:55:49;;;;;;;0.20;0.20;;;11.90;99.90;;;;;;4843408;29;20417;-75
2022/10/23 07:58:15;;;;;;;0.20;0.20;;;11.90;99.90;;;;;;4865739;29;20054;-75
2022/10/23 08:00:41;;;;;;;0.10;0.10;;;11.90;99.90;;;;;;4861566;29;20049;-75
2022/10/23 08:03:06;;;;;;;0.15;0.15;;;12.10;99.90;;;;;;4841174;29;20047;-75
2022/10/23 08:05:32;;;;;;;0.17;0.17;;;12.10;99.90;;;;;;4858697;29;20059;-74
2022/10/23 08:07:58;;;;;;;0.20;0.20;;;12.00;99.90;;;;;;4876856;29;20086;-74
2022/10/23 08:10:23;;;;;;;0.17;0.17;;;12.10;99.90;;;;;;4877336;29;20591;-75
2022/10/23 08:12:49;;;;;;;0.10;0.10;;;12.10;99.90;;;;;;4876681;29;20060;-74
2022/10/23 08:15:14;;;;;;;0.20;0.20;;;12.10;99.90;;;;;;4882443;29;20385;-75
2022/10/23 08:17:40;;;;;;;0.20;0.20;;;12.20;99.90;;;;;;4875448;29;20072;-75
2022/10/23 08:20:06;;;;;;;0.10;0.10;;;12.20;99.90;;;;;;4879527;29;20056;-75
2022/10/23 08:22:33;;;;;;;0.10;0.10;;;12.20;99.90;;;;;;4861727;29;20061;-74
2022/10/23 08:24:59;;;;;;;0.20;0.20;;;12.20;99.90;;;;;;4858265;29;20064;-75
2022/10/23 08:27:25;;;;;;;0.20;0.20;;;12.20;99.90;;;;;;4875677;29;20049;-75
2022/10/23 08:29:51;;;;;;;0.20;0.20;;;12.30;99.90;;;;;;4872060;29;20045;-75
2022/10/23 08:32:17;;;;;;;0.20;0.20;;;12.30;99.90;;;;;;4858890;29;20123;-75
2022/10/23 08:34:42;;;;;;;0.20;0.20;;;12.40;99.90;;;;;;4860981;29;20041;-75
2022/10/23 08:37:08;;;;;;;0.10;0.10;;;12.40;99.90;;;;;;4864877;29;20065;-75
2022/10/23 08:39:34;;;;;;;0.20;0.20;;;12.40;99.90;;;;;;4861362;29;20486;-74
2022/10/23 08:41:59;;;;;;;0.20;0.20;;;12.40;99.90;;;;;;4878048;29;20105;-75
2022/10/23 08:45:19;;;;;;;0.10;0.10;;;12.50;99.90;;;;;;4878990;29;20068;-75
2022/10/23 08:47:49;;;;;;;0.15;0.15;;;12.50;99.90;;;;;;4838665;29;20132;-75
2022/10/23 08:50:29;;;;;;;0.13;0.13;;;12.60;99.90;;;;;;4848277;29;20041;-72
2022/10/23 08:53:05;;;;;;;0.20;0.20;;;12.60;99.90;;;;;;4870419;29;20067;-73
2022/10/23 08:55:49;;;;;;;0.20;0.20;;;12.60;99.90;;;;;;4877348;29;20466;-72
2022/10/23 08:58:28;;;;;;;0.13;0.13;;;12.70;99.90;;;;;;4874686;29;20048;-75
2022/10/23 09:00:53;;;;;;;0.20;0.20;;;12.70;99.90;;;;;;4861553;29;20116;-75
2022/10/23 09:03:20;;;;;;;0.20;0.20;;;12.80;99.90;;;;;;4858571;29;20147;-75
2022/10/23 09:05:55;;;;;;;0.20;0.20;;;12.90;99.90;;;;;;4860192;29;20041;-73
2022/10/23 09:08:38;;;;;;;0.10;0.10;;;12.90;99.90;;;;;;4859827;29;20057;-72
2022/10/23 09:11:15;;;;;;;0.20;0.20;;;12.90;99.90;;;;;;4858283;29;20136;-75
2022/10/23 09:14:07;;;;;;;0.10;0.10;;;13.00;99.90;;;;;;4876518;29;20044;-75
2022/10/23 09:16:48;;;;;;;0.20;0.20;;;13.10;99.90;;;;;;4876353;29;20412;-75
2022/10/23 09:19:17;;;;;;;0.20;0.20;;;13.10;99.90;;;;;;4876841;29;20053;-75
2022/10/23 09:21:50;;;;;;;0.20;0.20;;;13.20;99.90;;;;;;4858369;29;20056;-75
2022/10/23 09:24:22;;;;;;;0.20;0.20;;;13.20;99.90;;;;;;4860030;29;20076;-75
2022/10/23 09:26:50;;;;;;;0.20;0.20;;;13.20;99.90;;;;;;4858938;29;20141;-75
2022/10/23 09:29:36;;;;;;;0.15;0.15;;;13.30;99.90;;;;;;4874764;29;20049;-75
2022/10/23 09:32:04;;;;;;;0.10;0.10;;;13.40;99.90;;;;;;4871541;29;20053;-75
2022/10/23 09:34:32;;;;;;;0.20;0.20;;;13.40;99.90;;;;;;4874802;29;20060;-75
2022/10/23 09:37:27;;;;;;;0.88;0.68;;;13.50;99.90;;;;;;4873624;29;20037;-74
2022/10/23 09:40:17;;;;;;;0.20;0.20;;;13.60;99.90;;;;;;4859572;29;20049;-74
2022/10/23 09:42:55;;;;;;;0.20;0.20;;;13.60;99.90;;;;;;4858112;29;20071;-74
2022/10/23 09:45:24;;;;;;;0.10;0.10;;;13.70;99.90;;;;;;4877139;29;20443;-74
2022/10/23 09:47:50;;;;;;;0.10;0.10;;;13.80;99.90;;;;;;4877362;29;20049;-76
2022/10/23 09:50:20;;;;;;;0.10;0.10;;;13.80;99.90;;;;;;4877694;29;20044;-75
2022/10/23 09:52:51;;;;;;;0.20;0.20;;;13.80;99.90;;;;;;4878548;29;20045;-75
2022/10/23 09:55:23;;;;;;;0.20;0.20;;;13.90;99.90;;;;;;4881117;29;20059;-74
2022/10/23 09:57:50;;;;;;;0.20;0.20;;;14.00;99.90;;;;;;4868727;29;20082;-74
2022/10/23 10:00:19;;;;;;;0.10;0.10;;;14.00;99.90;;;;;;4871597;29;20405;-75
2022/10/23 10:03:01;;;;;;;0.20;0.20;;;14.10;99.90;;;;;;4872946;29;20044;-74
2022/10/23 10:05:35;;;;;;;0.10;0.10;;;14.10;99.90;;;;;;4874862;29;20056;-75
2022/10/23 10:08:23;;;;;;;0.10;0.10;;;14.10;99.90;;;;;;4856516;29;20060;-75
2022/10/23 10:11:09;;;;;;;0.10;0.10;;;14.20;99.90;;;;;;4857723;29;20049;-74
2022/10/23 10:14:02;;;;;;;0.20;0.20;;;14.30;99.90;;;;;;4869712;29;20055;-74
2022/10/23 10:16:43;;;;;;;0.20;0.20;;;14.30;99.90;;;;;;4873382;29;20481;-75
2022/10/23 10:19:29;;;;;;;0.20;0.20;;;14.30;99.90;;;;;;4875697;29;20137;-74
2022/10/23 10:22:22;;;;;;;0.20;0.20;;;14.40;99.90;;;;;;4855612;29;20735;-75
2022/10/23 10:24:57;;;;;;;0.20;0.20;;;14.50;99.90;;;;;;4859733;29;20430;-74
2022/10/23 10:27:32;;;;;;;0.20;0.20;;;14.50;99.90;;;;;;4874675;29;20045;-74
2022/10/23 10:30:09;;;;;;;0.20;0.20;;;14.60;99.90;;;;;;4874427;29;21617;-74
2022/10/23 10:32:48;;;;;;;0.20;0.20;;;14.60;99.90;;;;;;4840981;29;20056;-76
2022/10/23 10:35:34;;;;;;;0.20;0.20;;;14.70;99.90;;;;;;4856256;29;20410;-73
2022/10/23 10:38:20;;;;;;;0.20;0.20;;;14.80;99.90;;;;;;4862141;29;20045;-74
2022/10/23 10:41:07;;;;;;;0.10;0.10;;;14.80;99.90;;;;;;4858055;29;20053;-74
2022/10/23 10:43:59;;;;;;;0.10;0.10;;;14.90;99.90;;;;;;4873674;29;20037;-75
2022/10/23 10:46:43;;;;;;;0.17;0.17;;;15.00;99.90;;;;;;4876684;29;20108;-74
2022/10/23 10:49:25;;;;;;;0.20;0.20;;;15.00;99.90;;;;;;4865086;29;20135;-74
2022/10/23 10:52:14;;;;;;;0.20;0.20;;;15.10;99.90;;;;;;4883348;29;20044;-75
2022/10/23 10:54:55;;;;;;;0.20;0.20;;;15.20;99.90;;;;;;4853318;29;20055;-75
2022/10/23 10:57:35;;;;;;;0.10;0.10;;;15.30;99.90;;;;;;4874183;29;20049;-75
2022/10/23 11:00:13;;;;;;;0.20;0.20;;;15.30;99.90;;;;;;4856050;29;20053;-75
2022/10/23 11:02:45;;;;;;;0.10;0.10;;;15.30;99.90;;;;;;4874653;29;20049;-75
2022/10/23 11:05:10;;;;;;;0.20;0.20;;;15.40;99.90;;;;;;4873895;29;20080;-74
2022/10/23 11:07:41;;;;;;;0.20;0.20;;;15.40;99.90;;;;;;4874458;29;20488;-74
2022/10/23 11:10:18;;;;;;;0.15;0.15;;;15.40;99.90;;;;;;4857348;29;20116;-75
2022/10/23 11:12:46;;;;;;;0.10;0.10;;;15.50;99.90;;;;;;4872361;29;20578;-75
2022/10/23 11:15:37;;;;;;;0.20;0.20;;;15.50;99.90;;;;;;4857427;29;20155;-75
2022/10/23 11:18:05;;;;;;;;;;;15.40;99.90;;;;;;4859105;29;20084;-75
2022/10/23 11:20:49;;;;;;;0.10;0.10;;;15.50;99.90;;;;;;4875770;29;20360;-74
2022/10/23 11:23:18;;;;;;;0.20;0.20;;;15.60;99.90;;;;;;4853508;29;20561;-74
2022/10/23 11:26:15;;;;;;;0.17;0.17;;;15.60;99.90;;;;;;4860088;29;20044;-75
2022/10/23 11:28:43;;;;;;;0.20;0.20;;;15.60;99.90;;;;;;4876852;29;20045;-74
2022/10/23 11:31:32;;;;;;;0.10;0.10;;;15.70;99.90;;;;;;4864608;29;20056;-75
2022/10/23 11:34:35;;;;;;;0.20;0.20;;;15.70;99.90;;;;;;4868183;29;20049;-75
2022/10/23 11:37:03;;;;;;;0.20;0.20;;;15.70;99.90;;;;;;4870505;29;20493;-74
2022/10/23 11:39:32;;;;;;;0.20;0.20;;;15.70;99.90;;;;;;4876939;29;20088;-74
2022/10/23 11:42:03;;;;;;;0.20;0.20;;;15.70;99.90;;;;;;4880055;29;20096;-74
2022/10/23 11:44:40;;;;;;;0.10;0.10;;;15.70;99.90;;;;;;4877945;29;20493;-74
2022/10/23 11:47:36;;;;;;;0.20;0.20;;;15.80;99.90;;;;;;4860959;29;20056;-75
2022/10/23 11:50:08;;;;;;;0.20;0.20;;;15.80;99.90;;;;;;4873549;29;20045;-75
2022/10/23 11:52:35;;;;;;;0.20;0.20;;;15.80;99.90;;;;;;4878499;29;20069;-74
2022/10/23 11:55:24;;;;;;;0.20;0.20;;;15.80;99.90;;;;;;4878010;29;20041;-74
2022/10/23 11:58:13;;;;;;;0.10;0.10;;;15.80;99.90;;;;;;4868853;29;20060;-75
2022/10/23 12:00:50;;;;;;;0.10;0.10;;;15.80;99.90;;;;;;4864357;29;20097;-75
2022/10/23 12:03:28;;;;;;;0.20;0.20;;;15.90;99.90;;;;;;4877770;29;20459;-74
2022/10/23 12:06:02;;;;;;;0.20;0.20;;;15.80;99.90;;;;;;4861698;29;20059;-74
2022/10/23 12:08:30;;;;;;;0.20;0.20;;;15.80;99.90;;;;;;4860608;29;20069;-74
2022/10/23 12:10:58;;;;;;;0.20;0.20;;;15.80;99.90;;;;;;4859086;29;20041;-74
2022/10/23 12:13:28;;;;;;;0.20;0.20;;;15.80;99.90;;;;;;4857853;29;20056;-74
2022/10/23 12:15:54;;;;;;;0.15;0.15;;;15.80;99.90;;;;;;4859728;29;20041;-74
2022/10/23 12:18:20;;;;;;;0.10;0.10;;;15.80;99.90;;;;;;4858337;29;20639;-75
2022/10/23 12:20:51;;;;;;;0.20;0.20;;;15.80;99.90;;;;;;4843450;29;20041;-74
2022/10/23 12:23:32;;;;;;;0.17;0.17;;;15.90;99.90;;;;;;4842840;29;20131;-74
2022/10/23 12:26:21;;;;;;;0.20;0.20;;;15.80;99.90;;;;;;4859117;29;20049;-74
2022/10/23 12:29:01;;;;;;;0.20;0.20;;;15.80;99.90;;;;;;4858058;29;20458;-74
2022/10/23 12:31:42;;;;;;;0.20;0.20;;;15.80;99.90;;;;;;4842422;29;20049;-74
2022/10/23 12:34:08;;;;;;;0.15;0.15;;;15.80;99.90;;;;;;4838111;29;20042;-74
2022/10/23 12:37:20;;;;;;;0.20;0.20;;;15.80;99.90;;;;;;4858517;29;20076;-74
2022/10/23 12:39:55;;;;;;;0.20;0.20;;;15.90;99.90;;;;;;4838259;29;20053;-75
2022/10/23 12:42:26;;;;;;;0.20;0.20;;;15.90;99.90;;;;;;4840875;29;20450;-74
2022/10/23 12:44:58;;;;;;;0.13;0.13;;;15.90;99.90;;;;;;4842145;29;20062;-74
2022/10/23 12:47:23;;;;;;;0.20;0.20;;;15.90;99.90;;;;;;4858100;29;20053;-74
2022/10/23 12:49:50;;;;;;;0.20;0.20;;;16.00;99.90;;;;;;4859267;29;20060;-74
2022/10/23 12:52:18;;;;;;;0.20;0.20;;;16.00;99.90;;;;;;4837243;29;20054;-74
2022/10/23 12:54:44;;;;;;;0.20;0.20;;;16.00;99.90;;;;;;4839493;29;20045;-74
2022/10/23 12:57:29;;;;;;;0.20;0.20;;;16.00;99.90;;;;;;4863997;29;20045;-74
2022/10/23 12:59:59;;;;;;;0.20;0.20;;;16.00;99.90;;;;;;4841760;29;20080;-75
2022/10/23 13:02:30;;;;;;;0.20;0.20;;;16.10;99.90;;;;;;4838563;29;20042;-75
2022/10/23 13:05:01;;;;;;;0.20;0.20;;;16.00;99.90;;;;;;4856173;29;20425;-75
2022/10/23 13:07:33;;;;;;;0.20;0.20;;;16.00;99.90;;;;;;4857984;29;20054;-74
2022/10/23 13:09:59;;;;;;;0.15;0.15;;;16.10;99.90;;;;;;4858392;29;20601;-75